sensor_id;sensor_type;location;lat;lon;timestamp;P1;durP1;ratioP1;P2;durP2;ratioP2
72286;SDS011;60221;45.696;16.076;2022-07-23T00:01:23;10.58;;;4.45;;
72286;SDS011;60221;45.696;16.076;2022-07-23T00:03:50;7.17;;;3.30;;
72286;SDS011;60221;45.696;16.076;2022-07-23T00:06:17;9.53;;;3.73;;
72286;SDS011;60221;45.696;16.076;2022-07-23T00:08:43;9.15;;;3.17;;
72286;SDS011;60221;45.696;16.076;2022-07-23T00:11:09;5.85;;;3.05;;
72286;SDS011;60221;45.696;16.076;2022-07-23T00:13:36;7.80;;;3.60;;
72286;SDS011;60221;45.696;16.076;2022-07-23T00:16:02;8.18;;;3.22;;
72286;SDS011;60221;45.696;16.076;2022-07-23T00:18:30;9.50;;;3.50;;
72286;SDS011;60221;45.696;16.076;2022-07-23T00:20:56;5.83;;;2.92;;
72286;SDS011;60221;45.696;16.076;2022-07-23T00:23:22;6.67;;;3.30;;
72286;SDS011;60221;45.696;16.076;2022-07-23T00:25:51;6.90;;;3.55;;
72286;SDS011;60221;45.696;16.076;2022-07-23T00:28:17;6.53;;;2.90;;
72286;SDS011;60221;45.696;16.076;2022-07-23T00:30:44;8.60;;;3.72;;
72286;SDS011;60221;45.696;16.076;2022-07-23T00:33:10;6.85;;;2.92;;
72286;SDS011;60221;45.696;16.076;2022-07-23T00:35:38;7.55;;;4.00;;
72286;SDS011;60221;45.696;16.076;2022-07-23T00:38:07;8.80;;;3.95;;
72286;SDS011;60221;45.696;16.076;2022-07-23T00:40:35;6.10;;;3.47;;
72286;SDS011;60221;45.696;16.076;2022-07-23T00:43:04;6.45;;;4.00;;
72286;SDS011;60221;45.696;16.076;2022-07-23T00:45:31;7.25;;;3.90;;
72286;SDS011;60221;45.696;16.076;2022-07-23T00:47:58;7.12;;;3.85;;
72286;SDS011;60221;45.696;16.076;2022-07-23T00:50:25;7.10;;;4.47;;
72286;SDS011;60221;45.696;16.076;2022-07-23T00:52:51;9.13;;;3.80;;
72286;SDS011;60221;45.696;16.076;2022-07-23T00:55:19;7.87;;;4.03;;
72286;SDS011;60221;45.696;16.076;2022-07-23T00:57:45;8.88;;;3.58;;
72286;SDS011;60221;45.696;16.076;2022-07-23T01:00:13;6.00;;;3.77;;
72286;SDS011;60221;45.696;16.076;2022-07-23T01:02:41;6.42;;;3.58;;
72286;SDS011;60221;45.696;16.076;2022-07-23T01:05:08;7.53;;;3.93;;
72286;SDS011;60221;45.696;16.076;2022-07-23T01:07:35;5.85;;;3.50;;
72286;SDS011;60221;45.696;16.076;2022-07-23T01:10:02;6.65;;;3.87;;
72286;SDS011;60221;45.696;16.076;2022-07-23T01:12:32;6.83;;;4.05;;
72286;SDS011;60221;45.696;16.076;2022-07-23T01:14:59;7.30;;;3.52;;
72286;SDS011;60221;45.696;16.076;2022-07-23T01:17:28;7.03;;;3.67;;
72286;SDS011;60221;45.696;16.076;2022-07-23T01:19:55;9.60;;;4.05;;
72286;SDS011;60221;45.696;16.076;2022-07-23T01:22:21;7.67;;;3.45;;
72286;SDS011;60221;45.696;16.076;2022-07-23T01:24:51;5.20;;;3.40;;
72286;SDS011;60221;45.696;16.076;2022-07-23T01:27:19;10.65;;;4.20;;
72286;SDS011;60221;45.696;16.076;2022-07-23T01:29:46;8.50;;;4.45;;
72286;SDS011;60221;45.696;16.076;2022-07-23T01:32:14;8.63;;;4.10;;
72286;SDS011;60221;45.696;16.076;2022-07-23T01:34:40;6.30;;;3.97;;
72286;SDS011;60221;45.696;16.076;2022-07-23T01:37:06;12.65;;;4.80;;
72286;SDS011;60221;45.696;16.076;2022-07-23T01:39:32;7.95;;;4.72;;
72286;SDS011;60221;45.696;16.076;2022-07-23T01:41:59;6.50;;;4.00;;
72286;SDS011;60221;45.696;16.076;2022-07-23T01:44:26;9.40;;;4.37;;
72286;SDS011;60221;45.696;16.076;2022-07-23T01:46:52;8.55;;;4.30;;
72286;SDS011;60221;45.696;16.076;2022-07-23T01:49:19;7.58;;;4.20;;
72286;SDS011;60221;45.696;16.076;2022-07-23T01:51:56;5.87;;;3.80;;
72286;SDS011;60221;45.696;16.076;2022-07-23T01:54:32;7.43;;;3.97;;
72286;SDS011;60221;45.696;16.076;2022-07-23T01:56:59;7.42;;;4.10;;
72286;SDS011;60221;45.696;16.076;2022-07-23T01:59:26;6.53;;;4.08;;
72286;SDS011;60221;45.696;16.076;2022-07-23T02:01:53;5.62;;;3.87;;
72286;SDS011;60221;45.696;16.076;2022-07-23T02:04:20;8.48;;;3.58;;
72286;SDS011;60221;45.696;16.076;2022-07-23T02:06:50;7.77;;;3.67;;
72286;SDS011;60221;45.696;16.076;2022-07-23T02:09:18;7.83;;;3.95;;
72286;SDS011;60221;45.696;16.076;2022-07-23T02:11:46;8.38;;;4.58;;
72286;SDS011;60221;45.696;16.076;2022-07-23T02:14:12;6.92;;;4.20;;
72286;SDS011;60221;45.696;16.076;2022-07-23T02:16:39;10.05;;;3.70;;
72286;SDS011;60221;45.696;16.076;2022-07-23T02:19:05;6.60;;;3.33;;
72286;SDS011;60221;45.696;16.076;2022-07-23T02:21:31;7.00;;;3.95;;
72286;SDS011;60221;45.696;16.076;2022-07-23T02:23:57;7.60;;;4.07;;
72286;SDS011;60221;45.696;16.076;2022-07-23T02:26:23;7.55;;;3.65;;
72286;SDS011;60221;45.696;16.076;2022-07-23T02:28:51;6.55;;;3.52;;
72286;SDS011;60221;45.696;16.076;2022-07-23T02:31:18;5.62;;;3.35;;
72286;SDS011;60221;45.696;16.076;2022-07-23T02:33:45;5.95;;;3.67;;
72286;SDS011;60221;45.696;16.076;2022-07-23T02:36:13;7.23;;;3.23;;
72286;SDS011;60221;45.696;16.076;2022-07-23T02:38:40;5.40;;;3.40;;
72286;SDS011;60221;45.696;16.076;2022-07-23T02:41:06;7.17;;;3.60;;
72286;SDS011;60221;45.696;16.076;2022-07-23T02:43:32;6.12;;;3.40;;
72286;SDS011;60221;45.696;16.076;2022-07-23T02:45:58;6.25;;;3.58;;
72286;SDS011;60221;45.696;16.076;2022-07-23T02:48:24;6.53;;;3.17;;
72286;SDS011;60221;45.696;16.076;2022-07-23T02:50:51;6.80;;;3.83;;
72286;SDS011;60221;45.696;16.076;2022-07-23T02:53:20;8.10;;;4.50;;
72286;SDS011;60221;45.696;16.076;2022-07-23T02:55:47;6.85;;;3.98;;
72286;SDS011;60221;45.696;16.076;2022-07-23T02:58:13;6.60;;;3.40;;
72286;SDS011;60221;45.696;16.076;2022-07-23T03:00:39;5.63;;;3.77;;
72286;SDS011;60221;45.696;16.076;2022-07-23T03:03:05;6.47;;;3.90;;
72286;SDS011;60221;45.696;16.076;2022-07-23T03:05:33;6.90;;;3.80;;
72286;SDS011;60221;45.696;16.076;2022-07-23T03:08:00;6.40;;;3.12;;
72286;SDS011;60221;45.696;16.076;2022-07-23T03:10:26;5.90;;;3.47;;
72286;SDS011;60221;45.696;16.076;2022-07-23T03:12:54;5.43;;;3.23;;
72286;SDS011;60221;45.696;16.076;2022-07-23T03:15:21;5.45;;;3.05;;
72286;SDS011;60221;45.696;16.076;2022-07-23T03:17:47;6.10;;;2.98;;
72286;SDS011;60221;45.696;16.076;2022-07-23T03:20:17;5.90;;;3.50;;
72286;SDS011;60221;45.696;16.076;2022-07-23T03:22:41;5.87;;;3.20;;
72286;SDS011;60221;45.696;16.076;2022-07-23T03:25:08;5.50;;;3.30;;
72286;SDS011;60221;45.696;16.076;2022-07-23T03:27:35;8.35;;;3.98;;
72286;SDS011;60221;45.696;16.076;2022-07-23T03:30:01;8.63;;;3.62;;
72286;SDS011;60221;45.696;16.076;2022-07-23T03:32:28;5.78;;;3.52;;
72286;SDS011;60221;45.696;16.076;2022-07-23T03:34:55;7.50;;;3.93;;
72286;SDS011;60221;45.696;16.076;2022-07-23T03:37:21;7.87;;;3.92;;
72286;SDS011;60221;45.696;16.076;2022-07-23T03:39:47;7.35;;;3.95;;
72286;SDS011;60221;45.696;16.076;2022-07-23T03:42:13;6.05;;;3.80;;
72286;SDS011;60221;45.696;16.076;2022-07-23T03:44:40;5.80;;;3.80;;
72286;SDS011;60221;45.696;16.076;2022-07-23T03:47:06;6.63;;;3.90;;
72286;SDS011;60221;45.696;16.076;2022-07-23T03:49:32;7.50;;;3.80;;
72286;SDS011;60221;45.696;16.076;2022-07-23T03:51:59;7.90;;;3.90;;
72286;SDS011;60221;45.696;16.076;2022-07-23T03:54:25;7.37;;;3.63;;
72286;SDS011;60221;45.696;16.076;2022-07-23T03:56:51;6.55;;;3.70;;
72286;SDS011;60221;45.696;16.076;2022-07-23T03:59:17;7.22;;;3.98;;
72286;SDS011;60221;45.696;16.076;2022-07-23T04:01:43;7.67;;;3.62;;
72286;SDS011;60221;45.696;16.076;2022-07-23T04:04:10;7.40;;;3.53;;
72286;SDS011;60221;45.696;16.076;2022-07-23T04:06:37;6.25;;;4.15;;
72286;SDS011;60221;45.696;16.076;2022-07-23T04:09:03;5.75;;;4.08;;
72286;SDS011;60221;45.696;16.076;2022-07-23T04:11:30;8.65;;;3.80;;
72286;SDS011;60221;45.696;16.076;2022-07-23T04:13:57;6.90;;;3.75;;
72286;SDS011;60221;45.696;16.076;2022-07-23T04:16:23;6.13;;;4.23;;
72286;SDS011;60221;45.696;16.076;2022-07-23T04:18:49;7.33;;;4.58;;
72286;SDS011;60221;45.696;16.076;2022-07-23T04:21:16;7.08;;;4.22;;
72286;SDS011;60221;45.696;16.076;2022-07-23T04:23:43;7.53;;;4.20;;
72286;SDS011;60221;45.696;16.076;2022-07-23T04:26:10;5.95;;;4.28;;
72286;SDS011;60221;45.696;16.076;2022-07-23T04:28:36;6.95;;;4.20;;
72286;SDS011;60221;45.696;16.076;2022-07-23T04:31:03;7.80;;;3.87;;
72286;SDS011;60221;45.696;16.076;2022-07-23T04:33:30;7.12;;;4.50;;
72286;SDS011;60221;45.696;16.076;2022-07-23T04:35:57;7.60;;;3.83;;
72286;SDS011;60221;45.696;16.076;2022-07-23T04:38:23;5.87;;;3.87;;
72286;SDS011;60221;45.696;16.076;2022-07-23T04:40:51;5.87;;;4.35;;
72286;SDS011;60221;45.696;16.076;2022-07-23T04:43:17;8.00;;;4.80;;
72286;SDS011;60221;45.696;16.076;2022-07-23T04:45:47;6.90;;;4.42;;
72286;SDS011;60221;45.696;16.076;2022-07-23T04:48:13;8.03;;;4.72;;
72286;SDS011;60221;45.696;16.076;2022-07-23T04:50:40;7.45;;;4.85;;
72286;SDS011;60221;45.696;16.076;2022-07-23T04:53:10;6.77;;;4.73;;
72286;SDS011;60221;45.696;16.076;2022-07-23T04:55:36;6.42;;;4.50;;
72286;SDS011;60221;45.696;16.076;2022-07-23T04:58:03;7.17;;;4.95;;
72286;SDS011;60221;45.696;16.076;2022-07-23T05:00:29;8.18;;;6.60;;
72286;SDS011;60221;45.696;16.076;2022-07-23T05:02:55;9.90;;;6.28;;
72286;SDS011;60221;45.696;16.076;2022-07-23T05:05:21;21.93;;;14.40;;
72286;SDS011;60221;45.696;16.076;2022-07-23T05:07:47;59.48;;;45.08;;
72286;SDS011;60221;45.696;16.076;2022-07-23T05:10:13;76.10;;;60.97;;
72286;SDS011;60221;45.696;16.076;2022-07-23T05:12:40;22.62;;;15.32;;
72286;SDS011;60221;45.696;16.076;2022-07-23T05:15:06;34.70;;;27.55;;
72286;SDS011;60221;45.696;16.076;2022-07-23T05:17:33;25.15;;;21.33;;
72286;SDS011;60221;45.696;16.076;2022-07-23T05:20:00;10.37;;;8.83;;
72286;SDS011;60221;45.696;16.076;2022-07-23T05:22:28;12.68;;;9.10;;
72286;SDS011;60221;45.696;16.076;2022-07-23T05:24:54;9.65;;;7.97;;
72286;SDS011;60221;45.696;16.076;2022-07-23T05:27:20;10.38;;;9.23;;
72286;SDS011;60221;45.696;16.076;2022-07-23T05:29:47;8.20;;;6.47;;
72286;SDS011;60221;45.696;16.076;2022-07-23T05:32:13;8.40;;;6.00;;
72286;SDS011;60221;45.696;16.076;2022-07-23T05:34:41;8.75;;;7.03;;
72286;SDS011;60221;45.696;16.076;2022-07-23T05:37:07;6.97;;;5.90;;
72286;SDS011;60221;45.696;16.076;2022-07-23T05:39:33;8.20;;;6.15;;
72286;SDS011;60221;45.696;16.076;2022-07-23T05:42:00;7.03;;;6.22;;
72286;SDS011;60221;45.696;16.076;2022-07-23T05:44:26;13.43;;;10.27;;
72286;SDS011;60221;45.696;16.076;2022-07-23T05:46:53;7.97;;;6.20;;
72286;SDS011;60221;45.696;16.076;2022-07-23T05:49:20;35.95;;;28.70;;
72286;SDS011;60221;45.696;16.076;2022-07-23T05:51:57;36.93;;;30.52;;
72286;SDS011;60221;45.696;16.076;2022-07-23T05:54:25;27.82;;;24.85;;
72286;SDS011;60221;45.696;16.076;2022-07-23T05:56:51;16.03;;;14.33;;
72286;SDS011;60221;45.696;16.076;2022-07-23T05:59:18;11.85;;;9.25;;
72286;SDS011;60221;45.696;16.076;2022-07-23T06:01:45;7.85;;;6.33;;
72286;SDS011;60221;45.696;16.076;2022-07-23T06:04:11;8.35;;;7.37;;
72286;SDS011;60221;45.696;16.076;2022-07-23T06:06:39;7.17;;;5.87;;
72286;SDS011;60221;45.696;16.076;2022-07-23T06:09:06;9.07;;;5.83;;
72286;SDS011;60221;45.696;16.076;2022-07-23T06:11:34;12.00;;;6.28;;
72286;SDS011;60221;45.696;16.076;2022-07-23T06:14:00;6.53;;;5.72;;
72286;SDS011;60221;45.696;16.076;2022-07-23T06:16:28;7.20;;;6.20;;
72286;SDS011;60221;45.696;16.076;2022-07-23T06:18:54;7.05;;;5.42;;
72286;SDS011;60221;45.696;16.076;2022-07-23T06:21:21;6.67;;;5.93;;
72286;SDS011;60221;45.696;16.076;2022-07-23T06:23:47;6.85;;;6.15;;
72286;SDS011;60221;45.696;16.076;2022-07-23T06:26:13;7.83;;;6.65;;
72286;SDS011;60221;45.696;16.076;2022-07-23T06:28:39;8.58;;;6.60;;
72286;SDS011;60221;45.696;16.076;2022-07-23T06:31:06;7.30;;;5.75;;
72286;SDS011;60221;45.696;16.076;2022-07-23T06:33:33;6.30;;;5.37;;
72286;SDS011;60221;45.696;16.076;2022-07-23T06:36:00;7.42;;;6.00;;
72286;SDS011;60221;45.696;16.076;2022-07-23T06:38:26;7.45;;;6.25;;
72286;SDS011;60221;45.696;16.076;2022-07-23T06:40:52;7.33;;;5.33;;
72286;SDS011;60221;45.696;16.076;2022-07-23T06:43:19;10.88;;;6.28;;
72286;SDS011;60221;45.696;16.076;2022-07-23T06:45:45;6.95;;;5.87;;
72286;SDS011;60221;45.696;16.076;2022-07-23T06:48:11;7.40;;;5.58;;
72286;SDS011;60221;45.696;16.076;2022-07-23T06:50:37;6.23;;;5.63;;
72286;SDS011;60221;45.696;16.076;2022-07-23T06:53:03;30.55;;;20.23;;
72286;SDS011;60221;45.696;16.076;2022-07-23T06:55:30;16.37;;;12.40;;
72286;SDS011;60221;45.696;16.076;2022-07-23T06:57:56;9.93;;;6.87;;
72286;SDS011;60221;45.696;16.076;2022-07-23T07:00:22;7.40;;;6.50;;
72286;SDS011;60221;45.696;16.076;2022-07-23T07:02:49;6.90;;;5.63;;
72286;SDS011;60221;45.696;16.076;2022-07-23T07:05:15;6.72;;;5.80;;
72286;SDS011;60221;45.696;16.076;2022-07-23T07:07:41;7.07;;;5.87;;
72286;SDS011;60221;45.696;16.076;2022-07-23T07:10:07;8.65;;;6.67;;
72286;SDS011;60221;45.696;16.076;2022-07-23T07:12:34;7.00;;;6.15;;
72286;SDS011;60221;45.696;16.076;2022-07-23T07:15:00;7.53;;;6.30;;
72286;SDS011;60221;45.696;16.076;2022-07-23T07:17:26;6.50;;;5.80;;
72286;SDS011;60221;45.696;16.076;2022-07-23T07:19:52;8.57;;;6.07;;
72286;SDS011;60221;45.696;16.076;2022-07-23T07:22:18;6.40;;;5.65;;
72286;SDS011;60221;45.696;16.076;2022-07-23T07:24:44;7.15;;;6.12;;
72286;SDS011;60221;45.696;16.076;2022-07-23T07:27:10;8.10;;;6.07;;
72286;SDS011;60221;45.696;16.076;2022-07-23T07:29:36;6.25;;;5.00;;
72286;SDS011;60221;45.696;16.076;2022-07-23T07:32:03;6.03;;;5.17;;
72286;SDS011;60221;45.696;16.076;2022-07-23T07:34:30;8.00;;;5.40;;
72286;SDS011;60221;45.696;16.076;2022-07-23T07:36:56;7.25;;;5.50;;
72286;SDS011;60221;45.696;16.076;2022-07-23T07:39:22;6.57;;;5.47;;
72286;SDS011;60221;45.696;16.076;2022-07-23T07:41:48;6.67;;;5.47;;
72286;SDS011;60221;45.696;16.076;2022-07-23T07:44:14;8.57;;;5.30;;
72286;SDS011;60221;45.696;16.076;2022-07-23T07:46:40;8.20;;;5.35;;
72286;SDS011;60221;45.696;16.076;2022-07-23T07:49:06;8.15;;;5.78;;
72286;SDS011;60221;45.696;16.076;2022-07-23T07:51:33;6.30;;;5.25;;
72286;SDS011;60221;45.696;16.076;2022-07-23T07:53:59;6.30;;;5.60;;
72286;SDS011;60221;45.696;16.076;2022-07-23T07:56:26;6.40;;;4.78;;
72286;SDS011;60221;45.696;16.076;2022-07-23T07:58:52;6.20;;;5.37;;
72286;SDS011;60221;45.696;16.076;2022-07-23T08:01:19;7.47;;;5.63;;
72286;SDS011;60221;45.696;16.076;2022-07-23T08:03:45;7.40;;;5.15;;
72286;SDS011;60221;45.696;16.076;2022-07-23T08:06:12;6.00;;;4.85;;
72286;SDS011;60221;45.696;16.076;2022-07-23T08:08:39;7.15;;;5.00;;
72286;SDS011;60221;45.696;16.076;2022-07-23T08:11:05;8.88;;;5.83;;
72286;SDS011;60221;45.696;16.076;2022-07-23T08:13:31;7.93;;;4.63;;
72286;SDS011;60221;45.696;16.076;2022-07-23T08:15:57;6.53;;;4.75;;
72286;SDS011;60221;45.696;16.076;2022-07-23T08:18:23;7.97;;;5.10;;
72286;SDS011;60221;45.696;16.076;2022-07-23T08:20:49;5.83;;;4.03;;
72286;SDS011;60221;45.696;16.076;2022-07-23T08:23:15;6.33;;;5.10;;
72286;SDS011;60221;45.696;16.076;2022-07-23T08:25:43;5.42;;;4.00;;
72286;SDS011;60221;45.696;16.076;2022-07-23T08:28:09;7.47;;;4.90;;
72286;SDS011;60221;45.696;16.076;2022-07-23T08:30:39;6.10;;;5.00;;
72286;SDS011;60221;45.696;16.076;2022-07-23T08:33:09;5.97;;;4.43;;
72286;SDS011;60221;45.696;16.076;2022-07-23T08:35:42;7.30;;;5.22;;
72286;SDS011;60221;45.696;16.076;2022-07-23T08:38:16;6.40;;;5.45;;
72286;SDS011;60221;45.696;16.076;2022-07-23T08:40:46;7.03;;;5.10;;
72286;SDS011;60221;45.696;16.076;2022-07-23T08:43:17;8.60;;;4.78;;
72286;SDS011;60221;45.696;16.076;2022-07-23T08:45:48;6.10;;;5.10;;
72286;SDS011;60221;45.696;16.076;2022-07-23T08:48:21;6.33;;;4.90;;
72286;SDS011;60221;45.696;16.076;2022-07-23T08:50:55;7.03;;;5.03;;
72286;SDS011;60221;45.696;16.076;2022-07-23T08:53:25;5.92;;;4.95;;
72286;SDS011;60221;45.696;16.076;2022-07-23T08:55:54;8.10;;;5.30;;
72286;SDS011;60221;45.696;16.076;2022-07-23T08:58:24;7.10;;;5.70;;
72286;SDS011;60221;45.696;16.076;2022-07-23T09:00:51;6.92;;;5.80;;
72286;SDS011;60221;45.696;16.076;2022-07-23T09:03:21;7.83;;;5.65;;
72286;SDS011;60221;45.696;16.076;2022-07-23T09:05:50;7.25;;;5.15;;
72286;SDS011;60221;45.696;16.076;2022-07-23T09:08:19;7.40;;;5.42;;
72286;SDS011;60221;45.696;16.076;2022-07-23T09:10:49;6.93;;;5.23;;
72286;SDS011;60221;45.696;16.076;2022-07-23T09:13:41;8.65;;;5.25;;
72286;SDS011;60221;45.696;16.076;2022-07-23T09:15:59;7.87;;;5.22;;
72286;SDS011;60221;45.696;16.076;2022-07-23T09:21:34;6.75;;;5.28;;
72286;SDS011;60221;45.696;16.076;2022-07-23T09:34:24;6.58;;;5.40;;
72286;SDS011;60221;45.696;16.076;2022-07-23T09:39:42;8.65;;;5.55;;
72286;SDS011;60221;45.696;16.076;2022-07-23T09:42:19;8.13;;;5.90;;
72286;SDS011;60221;45.696;16.076;2022-07-23T09:44:49;7.42;;;6.00;;
72286;SDS011;60221;45.696;16.076;2022-07-23T09:47:20;6.67;;;5.30;;
72286;SDS011;60221;45.696;16.076;2022-07-23T09:50:05;6.07;;;5.30;;
72286;SDS011;60221;45.696;16.076;2022-07-23T09:52:43;7.15;;;5.85;;
72286;SDS011;60221;45.696;16.076;2022-07-23T09:55:15;7.05;;;6.10;;
72286;SDS011;60221;45.696;16.076;2022-07-23T09:57:44;7.90;;;5.92;;
72286;SDS011;60221;45.696;16.076;2022-07-23T10:00:20;6.67;;;5.87;;
72286;SDS011;60221;45.696;16.076;2022-07-23T10:02:46;9.37;;;5.53;;
72286;SDS011;60221;45.696;16.076;2022-07-23T10:05:30;6.45;;;5.78;;
72286;SDS011;60221;45.696;16.076;2022-07-23T10:08:18;7.78;;;5.97;;
72286;SDS011;60221;45.696;16.076;2022-07-23T10:10:58;7.42;;;6.72;;
72286;SDS011;60221;45.696;16.076;2022-07-23T10:13:33;10.15;;;6.62;;
72286;SDS011;60221;45.696;16.076;2022-07-23T10:16:19;7.67;;;6.20;;
72286;SDS011;60221;45.696;16.076;2022-07-23T10:18:47;7.78;;;6.40;;
72286;SDS011;60221;45.696;16.076;2022-07-23T10:21:30;9.03;;;5.92;;
72286;SDS011;60221;45.696;16.076;2022-07-23T10:24:20;6.80;;;5.87;;
72286;SDS011;60221;45.696;16.076;2022-07-23T10:29:58;8.23;;;6.17;;
72286;SDS011;60221;45.696;16.076;2022-07-23T10:38:18;7.72;;;6.37;;
72286;SDS011;60221;45.696;16.076;2022-07-23T10:43:28;8.13;;;6.50;;
72286;SDS011;60221;45.696;16.076;2022-07-23T10:46:20;7.62;;;5.83;;
72286;SDS011;60221;45.696;16.076;2022-07-23T10:49:20;7.58;;;5.70;;
72286;SDS011;60221;45.696;16.076;2022-07-23T10:52:25;7.78;;;5.80;;
72286;SDS011;60221;45.696;16.076;2022-07-23T10:54:56;6.90;;;5.40;;
72286;SDS011;60221;45.696;16.076;2022-07-23T10:57:49;7.60;;;5.30;;
72286;SDS011;60221;45.696;16.076;2022-07-23T11:00:20;9.83;;;6.08;;
72286;SDS011;60221;45.696;16.076;2022-07-23T11:02:54;6.70;;;5.78;;
72286;SDS011;60221;45.696;16.076;2022-07-23T11:05:25;6.58;;;5.83;;
72286;SDS011;60221;45.696;16.076;2022-07-23T11:08:17;6.90;;;5.78;;
72286;SDS011;60221;45.696;16.076;2022-07-23T11:10:50;7.67;;;6.10;;
72286;SDS011;60221;45.696;16.076;2022-07-23T11:13:28;7.97;;;7.17;;
72286;SDS011;60221;45.696;16.076;2022-07-23T11:24:04;9.90;;;7.20;;
72286;SDS011;60221;45.696;16.076;2022-07-23T11:32:03;8.18;;;7.08;;
72286;SDS011;60221;45.696;16.076;2022-07-23T11:37:19;8.33;;;7.42;;
72286;SDS011;60221;45.696;16.076;2022-07-23T11:40:11;8.00;;;7.20;;
72286;SDS011;60221;45.696;16.076;2022-07-23T11:42:37;9.85;;;7.22;;
72286;SDS011;60221;45.696;16.076;2022-07-23T11:45:06;8.10;;;7.30;;
72286;SDS011;60221;45.696;16.076;2022-07-23T11:47:34;8.30;;;6.87;;
72286;SDS011;60221;45.696;16.076;2022-07-23T11:50:02;8.65;;;7.12;;
72286;SDS011;60221;45.696;16.076;2022-07-23T11:52:32;9.20;;;7.13;;
72286;SDS011;60221;45.696;16.076;2022-07-23T11:55:00;7.35;;;6.60;;
72286;SDS011;60221;45.696;16.076;2022-07-23T11:57:32;7.95;;;6.72;;
72286;SDS011;60221;45.696;16.076;2022-07-23T12:00:04;9.13;;;7.20;;
72286;SDS011;60221;45.696;16.076;2022-07-23T12:02:40;8.13;;;6.58;;
72286;SDS011;60221;45.696;16.076;2022-07-23T12:05:16;8.00;;;7.07;;
72286;SDS011;60221;45.696;16.076;2022-07-23T12:07:52;7.20;;;6.37;;
72286;SDS011;60221;45.696;16.076;2022-07-23T12:10:22;8.23;;;7.33;;
72286;SDS011;60221;45.696;16.076;2022-07-23T12:13:03;7.85;;;6.90;;
72286;SDS011;60221;45.696;16.076;2022-07-23T12:15:32;7.85;;;7.05;;
72286;SDS011;60221;45.696;16.076;2022-07-23T12:18:07;7.57;;;6.77;;
72286;SDS011;60221;45.696;16.076;2022-07-23T12:20:37;7.10;;;6.40;;
72286;SDS011;60221;45.696;16.076;2022-07-23T12:23:08;10.45;;;6.72;;
72286;SDS011;60221;45.696;16.076;2022-07-23T12:25:37;7.70;;;6.80;;
72286;SDS011;60221;45.696;16.076;2022-07-23T12:28:12;7.78;;;7.00;;
72286;SDS011;60221;45.696;16.076;2022-07-23T12:30:51;7.93;;;6.40;;
72286;SDS011;60221;45.696;16.076;2022-07-23T12:33:33;6.45;;;5.85;;
72286;SDS011;60221;45.696;16.076;2022-07-23T12:36:04;7.08;;;6.30;;
72286;SDS011;60221;45.696;16.076;2022-07-23T12:38:37;9.20;;;7.45;;
72286;SDS011;60221;45.696;16.076;2022-07-23T12:41:10;8.13;;;7.03;;
72286;SDS011;60221;45.696;16.076;2022-07-23T12:43:37;9.30;;;6.67;;
72286;SDS011;60221;45.696;16.076;2022-07-23T12:46:13;8.13;;;6.60;;
72286;SDS011;60221;45.696;16.076;2022-07-23T12:51:24;7.90;;;6.72;;
72286;SDS011;60221;45.696;16.076;2022-07-23T12:53:57;7.12;;;6.42;;
72286;SDS011;60221;45.696;16.076;2022-07-23T12:56:35;8.57;;;6.90;;
72286;SDS011;60221;45.696;16.076;2022-07-23T12:59:07;6.92;;;5.72;;
72286;SDS011;60221;45.696;16.076;2022-07-23T13:01:36;7.37;;;6.30;;
72286;SDS011;60221;45.696;16.076;2022-07-23T13:09:20;7.03;;;5.73;;
72286;SDS011;60221;45.696;16.076;2022-07-23T13:11:53;8.20;;;7.42;;
72286;SDS011;60221;45.696;16.076;2022-07-23T13:14:22;7.87;;;6.60;;
72286;SDS011;60221;45.696;16.076;2022-07-23T13:16:51;6.55;;;5.92;;
72286;SDS011;60221;45.696;16.076;2022-07-23T13:19:19;7.25;;;6.45;;
72286;SDS011;60221;45.696;16.076;2022-07-23T13:21:48;11.93;;;6.97;;
72286;SDS011;60221;45.696;16.076;2022-07-23T13:24:15;9.20;;;6.90;;
72286;SDS011;60221;45.696;16.076;2022-07-23T13:26:41;8.30;;;6.53;;
72286;SDS011;60221;45.696;16.076;2022-07-23T13:29:08;7.55;;;6.60;;
72286;SDS011;60221;45.696;16.076;2022-07-23T13:31:39;9.15;;;7.30;;
72286;SDS011;60221;45.696;16.076;2022-07-23T13:34:04;10.57;;;6.43;;
72286;SDS011;60221;45.696;16.076;2022-07-23T13:36:31;9.33;;;6.95;;
72286;SDS011;60221;45.696;16.076;2022-07-23T13:38:57;8.38;;;6.28;;
72286;SDS011;60221;45.696;16.076;2022-07-23T13:41:23;7.47;;;6.30;;
72286;SDS011;60221;45.696;16.076;2022-07-23T13:43:49;8.43;;;7.12;;
72286;SDS011;60221;45.696;16.076;2022-07-23T13:46:15;7.75;;;6.40;;
72286;SDS011;60221;45.696;16.076;2022-07-23T13:48:41;7.30;;;6.37;;
72286;SDS011;60221;45.696;16.076;2022-07-23T13:51:07;8.43;;;6.15;;
72286;SDS011;60221;45.696;16.076;2022-07-23T13:53:34;7.90;;;6.97;;
72286;SDS011;60221;45.696;16.076;2022-07-23T13:56:01;10.40;;;6.55;;
72286;SDS011;60221;45.696;16.076;2022-07-23T13:58:27;7.37;;;6.58;;
72286;SDS011;60221;45.696;16.076;2022-07-23T14:00:53;8.93;;;6.37;;
72286;SDS011;60221;45.696;16.076;2022-07-23T14:03:21;8.23;;;6.80;;
72286;SDS011;60221;45.696;16.076;2022-07-23T14:05:49;10.03;;;6.47;;
72286;SDS011;60221;45.696;16.076;2022-07-23T14:08:17;9.45;;;6.92;;
72286;SDS011;60221;45.696;16.076;2022-07-23T14:10:43;8.90;;;7.00;;
72286;SDS011;60221;45.696;16.076;2022-07-23T14:13:09;7.42;;;6.42;;
72286;SDS011;60221;45.696;16.076;2022-07-23T14:15:35;8.57;;;6.60;;
72286;SDS011;60221;45.696;16.076;2022-07-23T14:18:03;8.45;;;6.50;;
72286;SDS011;60221;45.696;16.076;2022-07-23T14:20:30;7.90;;;6.55;;
72286;SDS011;60221;45.696;16.076;2022-07-23T14:22:56;8.43;;;6.63;;
72286;SDS011;60221;45.696;16.076;2022-07-23T14:25:25;9.55;;;6.83;;
72286;SDS011;60221;45.696;16.076;2022-07-23T14:27:52;8.08;;;7.28;;
72286;SDS011;60221;45.696;16.076;2022-07-23T14:30:19;8.55;;;6.55;;
72286;SDS011;60221;45.696;16.076;2022-07-23T14:32:47;9.33;;;6.83;;
72286;SDS011;60221;45.696;16.076;2022-07-23T14:35:13;7.43;;;6.73;;
72286;SDS011;60221;45.696;16.076;2022-07-23T14:37:39;12.28;;;6.83;;
72286;SDS011;60221;45.696;16.076;2022-07-23T14:40:06;9.73;;;6.80;;
72286;SDS011;60221;45.696;16.076;2022-07-23T14:42:33;8.15;;;6.65;;
72286;SDS011;60221;45.696;16.076;2022-07-23T14:45:00;7.45;;;6.70;;
72286;SDS011;60221;45.696;16.076;2022-07-23T14:47:26;7.67;;;6.90;;
72286;SDS011;60221;45.696;16.076;2022-07-23T14:49:52;7.90;;;7.10;;
72286;SDS011;60221;45.696;16.076;2022-07-23T14:52:18;9.60;;;7.15;;
72286;SDS011;60221;45.696;16.076;2022-07-23T14:54:44;8.48;;;6.83;;
72286;SDS011;60221;45.696;16.076;2022-07-23T14:57:11;8.85;;;7.22;;
72286;SDS011;60221;45.696;16.076;2022-07-23T14:59:37;18.42;;;9.70;;
72286;SDS011;60221;45.696;16.076;2022-07-23T15:02:03;7.60;;;6.73;;
72286;SDS011;60221;45.696;16.076;2022-07-23T15:04:29;7.35;;;6.58;;
72286;SDS011;60221;45.696;16.076;2022-07-23T15:06:55;8.10;;;6.97;;
72286;SDS011;60221;45.696;16.076;2022-07-23T15:09:21;8.33;;;6.65;;
72286;SDS011;60221;45.696;16.076;2022-07-23T15:11:47;8.03;;;7.23;;
72286;SDS011;60221;45.696;16.076;2022-07-23T15:14:13;7.20;;;6.50;;
72286;SDS011;60221;45.696;16.076;2022-07-23T15:16:39;7.47;;;6.70;;
72286;SDS011;60221;45.696;16.076;2022-07-23T15:19:05;7.60;;;6.80;;
72286;SDS011;60221;45.696;16.076;2022-07-23T15:21:32;7.42;;;6.62;;
72286;SDS011;60221;45.696;16.076;2022-07-23T15:23:58;10.70;;;6.55;;
72286;SDS011;60221;45.696;16.076;2022-07-23T15:26:29;8.10;;;6.42;;
72286;SDS011;60221;45.696;16.076;2022-07-23T15:28:55;7.17;;;6.30;;
72286;SDS011;60221;45.696;16.076;2022-07-23T15:31:24;7.63;;;6.30;;
72286;SDS011;60221;45.696;16.076;2022-07-23T15:33:51;9.50;;;6.00;;